Time;durP1;ratioP1;P1;durP2;ratioP2;P2;SDS_P1;SDS_P2;PMS_P1;PMS_P2;Temp;Humidity;BMP_temperature;BMP_pressure;BME280_temperature;BME280_humidity;BME280_pressure;Samples;Min_cycle;Max_cycle;Signal;HPM_P1;HPM_P2
2023/07/26 00:00:06;;;;;;;1.30;0.80;;;19.40;85.60;;;;;;5014751;28;20034;-83
2023/07/26 00:02:31;;;;;;;1.30;0.65;;;19.30;85.50;;;;;;5015161;28;20070;-83
2023/07/26 00:04:57;;;;;;;1.58;0.88;;;19.40;85.50;;;;;;4997415;28;20022;-82
2023/07/26 00:07:22;;;;;;;1.15;0.73;;;19.40;85.40;;;;;;4997195;28;20010;-83
2023/07/26 00:09:48;;;;;;;1.65;0.85;;;19.40;85.40;;;;;;5014152;28;20159;-82
2023/07/26 00:12:13;;;;;;;1.30;0.80;;;19.50;85.40;;;;;;5015442;28;20737;-82
2023/07/26 00:14:39;;;;;;;1.58;0.77;;;19.40;85.30;;;;;;5011942;28;20072;-82
2023/07/26 00:17:05;;;;;;;1.33;0.70;;;19.40;85.20;;;;;;5007339;28;20033;-82
2023/07/26 00:19:30;;;;;;;2.05;0.82;;;19.50;85.20;;;;;;4999048;28;20047;-81
2023/07/26 00:21:56;;;;;;;0.93;0.70;;;19.50;85.10;;;;;;5021349;28;20022;-81
2023/07/26 00:24:21;;;;;;;1.83;0.88;;;19.50;85.10;;;;;;5010184;28;20022;-82
2023/07/26 00:26:47;;;;;;;1.52;0.80;;;19.50;85.00;;;;;;5010641;28;20504;-81
2023/07/26 00:29:12;;;;;;;0.90;0.70;;;19.50;85.00;;;;;;5010403;28;20033;-82
2023/07/26 00:31:38;;;;;;;2.17;0.98;;;19.50;85.10;;;;;;5009691;28;20033;-81
2023/07/26 00:34:03;;;;;;;1.73;0.98;;;19.50;85.10;;;;;;5008155;28;20026;-81
2023/07/26 00:36:29;;;;;;;1.45;0.68;;;19.40;85.10;;;;;;5026525;28;20034;-81
2023/07/26 00:38:55;;;;;;;1.02;0.65;;;19.40;85.10;;;;;;5007826;28;20050;-83
2023/07/26 00:41:21;;;;;;;2.83;1.17;;;19.40;85.20;;;;;;5007537;28;20049;-81
2023/07/26 00:43:46;;;;;;;0.95;0.70;;;19.40;85.30;;;;;;5007650;28;20022;-81
2023/07/26 00:46:12;;;;;;;1.40;0.77;;;19.30;85.30;;;;;;5006829;28;20061;-82
2023/07/26 00:48:38;;;;;;;1.05;0.70;;;19.40;85.50;;;;;;5025450;28;20064;-81
2023/07/26 00:51:04;;;;;;;1.95;0.90;;;19.40;85.60;;;;;;5006014;28;20443;-82
2023/07/26 00:53:31;;;;;;;2.17;0.68;;;19.40;85.60;;;;;;5005546;28;20029;-83
2023/07/26 00:55:56;;;;;;;1.48;0.80;;;19.30;85.60;;;;;;5006082;28;20483;-81
2023/07/26 00:58:22;;;;;;;2.25;0.85;;;19.30;85.60;;;;;;5006350;28;20057;-80
2023/07/26 01:00:47;;;;;;;2.30;0.70;;;19.30;85.60;;;;;;5005594;28;20044;-81
2023/07/26 01:03:14;;;;;;;1.48;0.82;;;19.30;85.60;;;;;;5004090;28;20371;-81
2023/07/26 01:05:48;;;;;;;1.80;0.80;;;19.30;85.60;;;;;;5004544;28;20032;-82
2023/07/26 01:08:27;;;;;;;1.00;0.70;;;19.30;85.60;;;;;;5022996;28;20049;-81
2023/07/26 01:10:57;;;;;;;1.23;0.75;;;19.30;85.60;;;;;;5022435;28;20028;-80
2023/07/26 01:13:29;;;;;;;1.50;0.70;;;19.30;85.60;;;;;;5022398;28;20080;-81
2023/07/26 01:15:54;;;;;;;1.33;0.80;;;19.30;85.60;;;;;;5021905;28;20022;-81
2023/07/26 01:18:20;;;;;;;1.23;0.70;;;19.30;85.60;;;;;;5002900;28;20121;-81
2023/07/26 01:20:45;;;;;;;1.83;0.80;;;19.30;85.60;;;;;;5002806;28;20117;-81
2023/07/26 01:23:11;;;;;;;2.55;0.93;;;19.30;85.60;;;;;;5021139;28;20109;-81
2023/07/26 01:25:37;;;;;;;0.98;0.70;;;19.30;85.60;;;;;;5001870;28;20026;-80
2023/07/26 01:28:03;;;;;;;1.60;0.80;;;19.30;85.60;;;;;;5019567;28;20025;-81
2023/07/26 01:30:30;;;;;;;2.20;1.23;;;19.30;85.60;;;;;;5002297;28;20026;-81
2023/07/26 01:33:01;;;;;;;1.27;0.80;;;19.30;85.60;;;;;;5002499;28;20103;-81
2023/07/26 01:35:28;;;;;;;1.90;0.85;;;19.30;85.60;;;;;;5020601;28;20049;-81
2023/07/26 01:37:54;;;;;;;1.45;0.70;;;19.30;85.60;;;;;;5020155;28;20034;-81
2023/07/26 01:40:21;;;;;;;2.00;0.90;;;19.30;85.50;;;;;;5000945;28;20117;-81
2023/07/26 01:42:47;;;;;;;1.42;0.88;;;19.30;85.40;;;;;;5019065;28;20025;-81
2023/07/26 01:45:13;;;;;;;1.42;0.80;;;19.30;85.40;;;;;;5001852;28;20022;-80
2023/07/26 01:47:38;;;;;;;1.50;0.90;;;19.30;85.40;;;;;;5018394;28;20037;-80
2023/07/26 01:50:04;;;;;;;1.85;0.90;;;19.40;85.40;;;;;;5000570;28;20442;-81
2023/07/26 01:52:30;;;;;;;1.17;0.75;;;19.40;85.30;;;;;;5000791;28;20555;-81
2023/07/26 01:54:55;;;;;;;1.40;0.93;;;19.40;85.30;;;;;;5017791;28;20026;-80
2023/07/26 01:57:24;;;;;;;2.00;0.90;;;19.40;85.20;;;;;;5000251;28;20116;-80
2023/07/26 01:59:50;;;;;;;0.85;0.73;;;19.40;85.20;;;;;;4999413;28;20034;-81
2023/07/26 02:02:15;;;;;;;1.88;0.90;;;19.40;85.20;;;;;;4999640;28;20030;-80
2023/07/26 02:04:42;;;;;;;1.98;0.90;;;19.40;85.20;;;;;;4999903;28;20084;-81
2023/07/26 02:07:08;;;;;;;1.35;0.77;;;19.40;85.20;;;;;;5017999;28;20026;-82
2023/07/26 02:09:34;;;;;;;1.77;0.80;;;19.40;85.20;;;;;;5017133;28;20029;-81
2023/07/26 02:11:59;;;;;;;1.20;0.85;;;19.40;85.30;;;;;;5017445;28;20022;-80
2023/07/26 02:14:25;;;;;;;1.20;0.75;;;19.40;85.20;;;;;;4999079;28;20064;-81
2023/07/26 02:16:50;;;;;;;1.90;0.90;;;19.40;85.20;;;;;;4998845;28;20515;-81
2023/07/26 02:19:16;;;;;;;1.55;0.93;;;19.30;85.20;;;;;;5016816;28;20030;-81
2023/07/26 02:21:41;;;;;;;1.15;0.70;;;19.30;85.30;;;;;;5016559;28;20048;-80
2023/07/26 02:24:07;;;;;;;1.70;0.90;;;19.40;85.60;;;;;;5015887;28;20033;-81
2023/07/26 02:26:41;;;;;;;1.20;0.80;;;19.30;85.60;;;;;;5017177;28;20018;-82
2023/07/26 02:29:07;;;;;;;1.65;0.80;;;19.30;85.70;;;;;;4997629;28;20017;-80
2023/07/26 02:31:32;;;;;;;0.95;0.73;;;19.30;85.70;;;;;;5014677;28;20036;-80
2023/07/26 02:33:58;;;;;;;1.40;0.82;;;19.30;85.60;;;;;;5016022;28;20028;-81
2023/07/26 02:36:24;;;;;;;1.48;0.80;;;19.30;85.70;;;;;;4998431;28;20397;-79
2023/07/26 02:38:50;;;;;;;1.70;0.90;;;19.30;85.60;;;;;;5012480;28;20022;-81
2023/07/26 02:41:15;;;;;;;1.25;0.80;;;19.30;85.70;;;;;;4991465;28;20033;-81
2023/07/26 02:43:41;;;;;;;1.13;0.85;;;19.20;85.60;;;;;;4978449;28;20049;-81
2023/07/26 02:46:06;;;;;;;0.85;0.80;;;19.20;85.60;;;;;;4994343;28;20025;-80
2023/07/26 02:48:32;;;;;;;1.05;0.70;;;19.20;85.60;;;;;;5010620;28;20496;-80
2023/07/26 02:50:58;;;;;;;1.33;0.88;;;19.20;85.60;;;;;;4998144;28;20030;-81
2023/07/26 02:53:23;;;;;;;1.42;0.70;;;19.30;85.70;;;;;;5015009;28;20026;-81
2023/07/26 02:55:49;;;;;;;1.35;0.65;;;19.20;85.60;;;;;;4996492;28;20113;-82
2023/07/26 02:58:15;;;;;;;1.73;0.90;;;19.20;85.60;;;;;;4997260;28;20038;-80
2023/07/26 03:00:41;;;;;;;2.15;0.88;;;19.20;85.60;;;;;;4997892;28;20032;-80
2023/07/26 03:03:06;;;;;;;1.33;0.80;;;19.20;85.60;;;;;;4997269;28;20030;-81
2023/07/26 03:05:33;;;;;;;1.25;0.88;;;19.20;85.60;;;;;;4997692;28;20018;-81
2023/07/26 03:07:58;;;;;;;1.17;0.85;;;19.20;85.60;;;;;;4996482;28;20025;-81
2023/07/26 03:10:24;;;;;;;1.33;0.80;;;19.20;85.60;;;;;;5029969;28;20026;-83
2023/07/26 03:12:49;;;;;;;2.05;1.00;;;19.20;85.60;;;;;;5028865;28;20026;-82
2023/07/26 03:15:15;;;;;;;2.65;0.90;;;19.20;85.60;;;;;;5010526;28;20032;-83
2023/07/26 03:17:40;;;;;;;1.15;0.90;;;19.20;85.50;;;;;;5010331;28;20061;-82
2023/07/26 03:20:06;;;;;;;1.45;0.90;;;19.30;85.50;;;;;;5010788;28;20025;-82
2023/07/26 03:22:32;;;;;;;2.67;1.05;;;19.30;85.50;;;;;;5027525;28;20491;-82
2023/07/26 03:24:57;;;;;;;2.20;0.90;;;19.30;85.40;;;;;;5027033;28;20552;-81
2023/07/26 03:27:23;;;;;;;1.45;0.80;;;19.30;85.40;;;;;;5023292;28;20538;-82
2023/07/26 03:29:48;;;;;;;1.20;0.80;;;19.30;85.30;;;;;;5019544;28;20121;-83
2023/07/26 03:32:14;;;;;;;1.20;0.90;;;19.30;85.30;;;;;;5018807;28;20034;-84
2023/07/26 03:34:40;;;;;;;1.05;0.77;;;19.30;85.70;;;;;;5010281;28;20034;-83
2023/07/26 03:37:05;;;;;;;1.27;0.70;;;19.40;85.30;;;;;;5008863;28;20057;-84
2023/07/26 03:39:31;;;;;;;1.40;1.08;;;19.40;85.30;;;;;;5023771;28;20432;-81
2023/07/26 03:41:56;;;;;;;1.42;0.85;;;19.40;85.40;;;;;;5024441;28;20026;-83
2023/07/26 03:53:05;;;;;;;1.50;0.80;;;19.30;85.20;;;;;;5127208;22;20065;-84
2023/07/26 04:09:00;;;;;;;1.95;0.90;;;19.20;85.60;;;;;;5020345;28;20028;-81
2023/07/26 04:11:25;;;;;;;2.35;1.00;;;19.20;85.60;;;;;;4997226;28;20015;-79
2023/07/26 04:13:51;;;;;;;2.08;1.10;;;19.20;85.60;;;;;;4980530;28;20748;-81
2023/07/26 04:16:21;;;;;;;1.70;0.90;;;19.20;85.60;;;;;;4991379;28;20038;-82
2023/07/26 04:18:47;;;;;;;1.63;0.80;;;19.20;85.60;;;;;;4990074;28;20384;-78
2023/07/26 04:21:14;;;;;;;2.13;0.90;;;19.20;85.60;;;;;;5002879;28;20029;-82
2023/07/26 04:34:00;;;;;;;1.25;0.90;;;19.20;85.50;;;;;;4959072;28;20231;-81
2023/07/26 04:36:28;;;;;;;1.17;0.90;;;19.20;85.50;;;;;;4938952;29;20028;-79
2023/07/26 04:53:28;;;;;;;1.15;1.00;;;19.20;85.50;;;;;;4872607;29;20053;-81
2023/07/26 05:03:19;;;;;;;1.38;0.85;;;19.20;85.30;;;;;;4864076;29;20071;-81
2023/07/26 05:32:53;;;;;;;3.92;1.10;;;19.30;84.90;;;;;;4975949;28;20027;-83
2023/07/26 05:35:19;;;;;;;4.68;1.20;;;19.30;84.60;;;;;;4982984;28;20087;-82
2023/07/26 05:37:44;;;;;;;3.17;1.35;;;19.30;84.70;;;;;;5018486;28;20075;-81
2023/07/26 05:40:10;;;;;;;2.28;1.27;;;19.30;84.50;;;;;;5019169;28;20025;-81
2023/07/26 05:42:36;;;;;;;4.90;1.52;;;19.20;84.40;;;;;;5018835;28;20044;-81
2023/07/26 05:45:02;;;;;;;3.03;1.10;;;19.30;84.50;;;;;;5018992;28;20032;-81
2023/07/26 05:47:30;;;;;;;3.08;1.35;;;19.30;84.50;;;;;;5018630;28;20391;-81
2023/07/26 05:49:56;;;;;;;3.95;1.15;;;19.20;84.40;;;;;;5036973;28;20021;-81
2023/07/26 05:52:21;;;;;;;2.33;1.17;;;19.30;84.40;;;;;;5018383;28;20369;-81
2023/07/26 05:54:46;;;;;;;1.85;1.10;;;19.20;84.40;;;;;;5017421;28;20101;-81
2023/07/26 05:57:12;;;;;;;2.92;1.13;;;19.30;84.50;;;;;;5018405;28;20022;-82
2023/07/26 05:59:37;;;;;;;3.28;1.10;;;19.30;84.60;;;;;;5017371;28;20400;-81
2023/07/26 06:02:03;;;;;;;4.47;1.15;;;19.20;84.60;;;;;;5017485;28;20395;-81
2023/07/26 06:04:29;;;;;;;2.55;1.10;;;19.30;84.60;;;;;;5016777;28;20021;-81
2023/07/26 06:06:55;;;;;;;3.75;1.10;;;19.30;84.50;;;;;;5017082;28;20048;-81
2023/07/26 06:09:21;;;;;;;2.20;1.00;;;19.30;84.50;;;;;;5034929;28;20395;-81
2023/07/26 06:11:47;;;;;;;2.05;1.00;;;19.30;84.50;;;;;;5016786;28;20030;-81
2023/07/26 06:14:12;;;;;;;3.72;1.10;;;19.30;84.50;;;;;;5034183;28;20025;-81
2023/07/26 06:16:38;;;;;;;2.13;0.93;;;19.30;84.50;;;;;;5016565;28;20061;-81
2023/07/26 06:19:03;;;;;;;2.55;1.05;;;19.30;84.40;;;;;;5016636;28;20124;-81
2023/07/26 06:21:29;;;;;;;1.73;1.10;;;19.30;84.50;;;;;;5016208;28;20064;-81
2023/07/26 06:23:54;;;;;;;2.15;1.20;;;19.30;84.50;;;;;;5016684;28;20033;-81
2023/07/26 06:26:20;;;;;;;2.33;1.15;;;19.30;84.50;;;;;;5016496;28;20029;-81
2023/07/26 06:28:46;;;;;;;3.97;1.30;;;19.30;84.50;;;;;;5034128;28;20112;-80
2023/07/26 06:31:12;;;;;;;1.80;1.02;;;19.30;84.50;;;;;;5015836;28;20057;-81
2023/07/26 06:33:37;;;;;;;2.22;1.10;;;19.30;84.40;;;;;;5016074;28;20108;-81
2023/07/26 06:36:03;;;;;;;1.25;0.98;;;19.30;84.40;;;;;;5033720;28;20100;-81
2023/07/26 06:38:28;;;;;;;2.17;1.10;;;19.30;84.30;;;;;;5015975;28;20507;-81
2023/07/26 06:40:54;;;;;;;3.63;1.02;;;19.40;84.30;;;;;;5034110;28;20037;-81
2023/07/26 06:43:19;;;;;;;1.60;0.90;;;19.40;84.20;;;;;;5015332;28;20033;-81
2023/07/26 06:45:47;;;;;;;1.88;1.10;;;19.40;84.10;;;;;;5032962;28;20036;-85
2023/07/26 06:48:13;;;;;;;1.80;1.10;;;19.40;84.00;;;;;;5035880;28;20028;-83
2023/07/26 06:50:39;;;;;;;2.25;1.13;;;19.40;83.90;;;;;;5036432;28;20026;-85
2023/07/26 06:53:05;;;;;;;1.95;1.10;;;19.50;83.90;;;;;;5035170;28;20049;-84
2023/07/26 06:55:32;;;;;;;2.05;0.93;;;19.50;83.80;;;;;;5035413;28;20029;-83
2023/07/26 06:57:57;;;;;;;2.22;0.90;;;19.60;83.70;;;;;;5034447;28;20453;-83
2023/07/26 07:00:23;;;;;;;2.65;0.90;;;19.60;83.60;;;;;;5051599;28;20029;-83
2023/07/26 07:02:48;;;;;;;1.90;1.10;;;19.50;83.30;;;;;;5052596;28;20037;-83
2023/07/26 07:05:14;;;;;;;3.83;1.52;;;19.60;83.40;;;;;;5032805;28;20040;-84
2023/07/26 07:07:40;;;;;;;1.50;1.00;;;19.60;83.50;;;;;;5050925;28;20025;-83
2023/07/26 07:10:06;;;;;;;1.38;1.00;;;19.60;83.50;;;;;;5037088;28;20021;-83
2023/07/26 07:12:31;;;;;;;2.83;1.05;;;19.60;83.50;;;;;;5036091;28;20056;-84
2023/07/26 07:14:57;;;;;;;2.70;1.38;;;19.60;83.60;;;;;;5035472;28;20022;-85
2023/07/26 07:17:23;;;;;;;1.60;0.85;;;19.60;83.60;;;;;;5035621;28;20025;-84
2023/07/26 07:19:48;;;;;;;1.92;1.10;;;19.60;83.60;;;;;;5034156;28;20035;-84
2023/07/26 07:22:14;;;;;;;1.85;1.02;;;19.60;83.70;;;;;;5052358;28;20112;-83
2023/07/26 07:24:39;;;;;;;1.25;0.90;;;19.60;83.60;;;;;;5033701;28;20523;-83
2023/07/26 07:27:06;;;;;;;2.33;1.25;;;19.60;83.60;;;;;;5055311;28;20017;-81
2023/07/26 07:29:34;;;;;;;2.35;1.00;;;19.60;83.60;;;;;;5036271;28;20503;-82
2023/07/26 07:32:00;;;;;;;3.30;1.20;;;19.60;83.60;;;;;;5036139;28;20048;-84
2023/07/26 07:34:25;;;;;;;1.73;1.00;;;19.60;83.60;;;;;;5053331;28;20487;-85
2023/07/26 07:36:51;;;;;;;1.23;0.80;;;19.60;83.60;;;;;;5034765;28;20081;-81
2023/07/26 07:39:17;;;;;;;1.73;1.00;;;19.60;83.60;;;;;;5034602;28;20108;-81
2023/07/26 07:41:42;;;;;;;1.95;1.20;;;19.60;83.70;;;;;;5033304;28;20022;-85
2023/07/26 07:44:08;;;;;;;1.88;0.90;;;19.60;83.60;;;;;;5033154;28;20045;-81
2023/07/26 07:46:33;;;;;;;2.03;1.10;;;19.60;83.70;;;;;;5051248;28;20068;-82
2023/07/26 07:49:00;;;;;;;1.33;1.00;;;19.60;83.70;;;;;;5032057;28;20021;-84
2023/07/26 07:51:25;;;;;;;1.95;1.20;;;19.60;83.70;;;;;;5050550;28;20025;-84
2023/07/26 07:53:51;;;;;;;2.55;1.20;;;19.60;83.70;;;;;;5030362;28;20040;-81
2023/07/26 07:56:16;;;;;;;2.55;1.10;;;19.60;83.80;;;;;;5050102;28;20028;-81
2023/07/26 07:58:42;;;;;;;1.33;0.90;;;19.60;83.80;;;;;;5048851;28;20026;-84
2023/07/26 08:01:07;;;;;;;1.98;1.02;;;19.50;83.80;;;;;;5030452;28;20416;-83
2023/07/26 08:03:34;;;;;;;1.38;1.00;;;19.60;83.80;;;;;;5047177;28;20529;-81
2023/07/26 08:05:59;;;;;;;1.50;1.00;;;19.60;83.70;;;;;;5028509;28;20021;-82
2023/07/26 08:08:25;;;;;;;2.10;0.98;;;19.60;83.70;;;;;;5028522;28;20026;-83
2023/07/26 08:10:50;;;;;;;1.40;0.90;;;19.60;83.60;;;;;;5047210;28;20014;-81
2023/07/26 08:13:16;;;;;;;1.75;1.10;;;19.70;83.60;;;;;;5028040;28;20017;-81
2023/07/26 08:15:42;;;;;;;1.73;1.00;;;19.70;83.40;;;;;;5026811;28;20036;-82
2023/07/26 08:18:08;;;;;;;1.73;0.95;;;19.70;83.20;;;;;;5045305;28;20010;-81
2023/07/26 08:20:35;;;;;;;1.35;0.98;;;19.80;83.10;;;;;;5025441;28;20482;-81
2023/07/26 08:23:01;;;;;;;1.33;0.90;;;19.90;82.90;;;;;;5044353;28;20091;-80
2023/07/26 08:25:27;;;;;;;2.25;1.15;;;19.90;82.70;;;;;;5025419;28;20040;-83
2023/07/26 08:27:52;;;;;;;1.45;1.00;;;19.90;82.60;;;;;;5026378;28;20049;-81
2023/07/26 08:30:18;;;;;;;2.35;1.00;;;20.00;82.60;;;;;;5024724;28;20464;-81
2023/07/26 08:32:44;;;;;;;1.55;1.00;;;20.00;82.50;;;;;;5044795;28;20034;-82
2023/07/26 08:35:09;;;;;;;2.42;1.10;;;20.00;82.40;;;;;;5024110;28;20117;-81
2023/07/26 08:37:35;;;;;;;2.75;1.00;;;20.00;82.30;;;;;;5023412;28;20025;-81
2023/07/26 08:40:00;;;;;;;1.77;1.10;;;20.00;82.30;;;;;;5022837;28;20033;-81
2023/07/26 08:42:26;;;;;;;1.65;1.00;;;20.00;82.40;;;;;;5023326;28;20022;-81
2023/07/26 08:44:52;;;;;;;1.48;1.10;;;20.00;82.40;;;;;;5022480;28;20031;-81
2023/07/26 08:47:22;;;;;;;1.75;1.15;;;20.00;82.50;;;;;;5023515;28;20610;-81
2023/07/26 08:49:49;;;;;;;2.08;0.90;;;20.00;82.60;;;;;;5022545;28;20057;-81
2023/07/26 08:52:18;;;;;;;2.17;1.10;;;20.00;82.60;;;;;;5022487;28;20029;-82
2023/07/26 08:54:45;;;;;;;1.77;1.02;;;20.00;82.60;;;;;;5040488;28;20506;-82
2023/07/26 08:57:11;;;;;;;2.72;1.30;;;20.00;82.70;;;;;;5039705;28;20030;-81
2023/07/26 08:59:37;;;;;;;1.35;0.95;;;20.00;82.70;;;;;;5038473;28;20097;-81
2023/07/26 09:02:04;;;;;;;1.60;0.90;;;20.00;82.70;;;;;;5021195;28;20029;-81
2023/07/26 09:04:31;;;;;;;1.60;1.05;;;20.00;82.60;;;;;;5020975;28;20446;-83
2023/07/26 09:07:00;;;;;;;1.45;1.00;;;20.00;82.60;;;;;;5020892;28;20018;-80
2023/07/26 09:09:26;;;;;;;1.75;1.00;;;20.00;82.40;;;;;;5039547;28;20025;-83
2023/07/26 09:11:52;;;;;;;1.10;0.80;;;20.00;83.00;;;;;;5040646;28;20021;-81
2023/07/26 09:14:17;;;;;;;1.48;0.98;;;20.00;82.60;;;;;;5019706;28;20026;-81
2023/07/26 09:16:43;;;;;;;1.08;0.90;;;20.00;82.70;;;;;;5019501;28;20553;-81
2023/07/26 09:19:09;;;;;;;1.65;0.98;;;20.00;82.70;;;;;;5018911;28;20026;-81
2023/07/26 09:21:36;;;;;;;1.83;1.10;;;20.10;82.70;;;;;;5019524;28;20506;-82
2023/07/26 09:24:06;;;;;;;1.50;1.00;;;20.10;82.60;;;;;;5037535;28;20025;-82
2023/07/26 09:26:41;;;;;;;1.48;0.90;;;20.10;82.60;;;;;;5037339;28;20031;-81
2023/07/26 09:29:12;;;;;;;1.33;0.90;;;20.10;82.50;;;;;;5018650;28;20026;-81
2023/07/26 09:31:41;;;;;;;2.03;1.00;;;20.10;82.60;;;;;;5035877;28;20025;-81
2023/07/26 09:34:08;;;;;;;1.02;0.90;;;20.10;82.60;;;;;;5018210;28;20029;-81
2023/07/26 09:36:54;;;;;;;2.03;1.00;;;20.10;82.60;;;;;;5036204;28;20100;-81
2023/07/26 09:39:22;;;;;;;1.65;0.95;;;20.10;82.60;;;;;;5018334;28;20029;-81
2023/07/26 09:41:49;;;;;;;1.75;1.05;;;20.10;82.40;;;;;;5035759;28;20392;-81
2023/07/26 09:44:17;;;;;;;1.40;0.90;;;20.10;82.40;;;;;;5017667;28;20565;-81
2023/07/26 09:46:53;;;;;;;1.33;0.90;;;20.20;82.50;;;;;;5017855;28;20026;-82
2023/07/26 09:49:24;;;;;;;1.98;1.10;;;20.20;82.30;;;;;;5035424;28;20108;-81
2023/07/26 09:51:54;;;;;;;1.80;1.05;;;20.20;82.20;;;;;;5017230;28;20108;-82
2023/07/26 09:54:33;;;;;;;1.67;1.08;;;20.20;82.10;;;;;;5017072;28;20487;-81
2023/07/26 09:57:00;;;;;;;1.58;0.93;;;20.30;82.10;;;;;;5016965;28;20032;-81
2023/07/26 09:59:30;;;;;;;1.70;1.00;;;20.30;81.90;;;;;;5016721;28;20021;-81
2023/07/26 10:01:59;;;;;;;1.38;0.90;;;20.30;81.90;;;;;;5016618;28;20045;-82
2023/07/26 10:04:53;;;;;;;1.38;0.95;;;20.30;81.90;;;;;;5016615;28;20021;-82
2023/07/26 10:07:20;;;;;;;1.77;0.93;;;20.30;81.90;;;;;;5034768;28;20492;-81
2023/07/26 10:09:47;;;;;;;1.67;1.00;;;20.30;82.00;;;;;;5016601;28;20029;-81
2023/07/26 10:12:14;;;;;;;1.75;1.00;;;20.30;82.00;;;;;;5016281;28;20036;-81
2023/07/26 10:14:41;;;;;;;1.30;0.93;;;20.30;81.90;;;;;;5016219;28;20523;-81
2023/07/26 10:17:07;;;;;;;1.38;1.02;;;20.30;81.90;;;;;;5016257;28;20120;-81
2023/07/26 10:19:36;;;;;;;1.55;0.95;;;20.30;81.90;;;;;;5016277;28;20484;-81
2023/07/26 10:22:03;;;;;;;1.48;1.00;;;20.30;82.10;;;;;;5016123;28;20335;-81
2023/07/26 10:24:30;;;;;;;1.65;1.00;;;20.20;82.10;;;;;;5017197;28;20021;-84
2023/07/26 10:26:57;;;;;;;1.38;0.88;;;20.20;82.30;;;;;;5037329;28;20026;-85
2023/07/26 10:29:22;;;;;;;1.55;0.80;;;20.20;82.50;;;;;;5054664;28;20613;-85
2023/07/26 10:32:03;;;;;;;1.73;1.00;;;20.10;82.50;;;;;;5054085;28;20040;-83
2023/07/26 10:34:29;;;;;;;1.40;0.88;;;20.10;82.60;;;;;;5035619;28;20396;-85
2023/07/26 10:36:55;;;;;;;1.05;0.80;;;20.10;82.80;;;;;;5035487;28;20049;-83
2023/07/26 10:39:34;;;;;;;1.40;0.90;;;20.00;82.80;;;;;;5034684;28;20025;-86
2023/07/26 10:42:02;;;;;;;0.98;0.90;;;20.00;82.90;;;;;;5034091;28;20032;-84
2023/07/26 10:44:27;;;;;;;1.15;0.82;;;20.00;83.00;;;;;;5033914;28;20450;-83
2023/07/26 10:47:03;;;;;;;1.25;1.02;;;20.00;83.00;;;;;;5032633;28;20026;-81
2023/07/26 10:49:30;;;;;;;1.15;0.90;;;20.00;83.10;;;;;;5034749;28;20049;-85
2023/07/26 10:52:02;;;;;;;1.67;0.80;;;20.00;82.90;;;;;;5036909;28;20411;-84
2023/07/26 10:54:54;;;;;;;1.20;1.00;;;20.00;82.80;;;;;;5035806;28;20020;-83
2023/07/26 10:57:31;;;;;;;1.33;0.90;;;20.10;82.80;;;;;;5032447;28;20508;-85
2023/07/26 10:59:58;;;;;;;1.30;0.90;;;20.10;82.60;;;;;;5034669;28;20036;-83
2023/07/26 11:02:37;;;;;;;1.50;1.00;;;20.10;82.40;;;;;;5052362;28;20056;-84
2023/07/26 11:05:05;;;;;;;1.10;0.90;;;20.10;82.40;;;;;;5033708;28;20014;-84
2023/07/26 11:08:00;;;;;;;1.35;1.00;;;20.10;82.50;;;;;;5051290;28;20012;-81
2023/07/26 11:10:28;;;;;;;1.65;0.93;;;20.10;82.50;;;;;;5020073;28;20471;-84
2023/07/26 11:13:10;;;;;;;1.17;0.85;;;20.10;82.70;;;;;;5050271;28;20080;-83
2023/07/26 11:15:44;;;;;;;1.52;1.00;;;20.10;82.80;;;;;;5049387;28;20025;-84
2023/07/26 11:18:11;;;;;;;1.60;0.90;;;20.00;82.90;;;;;;5030543;28;20025;-83
2023/07/26 11:20:44;;;;;;;0.95;0.80;;;20.00;82.90;;;;;;5030279;28;20049;-82
2023/07/26 11:23:18;;;;;;;1.10;0.80;;;20.00;83.00;;;;;;5030022;28;20029;-85
2023/07/26 11:25:49;;;;;;;1.15;0.90;;;20.00;83.10;;;;;;5029503;28;20022;-82
2023/07/26 11:28:15;;;;;;;1.70;0.80;;;20.00;83.00;;;;;;5029096;28;20446;-81
2023/07/26 11:30:49;;;;;;;1.83;1.10;;;20.00;82.90;;;;;;5029383;28;20488;-84
2023/07/26 11:33:26;;;;;;;1.42;0.82;;;20.00;82.70;;;;;;5027678;28;20456;-81
2023/07/26 11:35:52;;;;;;;1.75;1.10;;;20.10;82.70;;;;;;5045634;28;20111;-83
2023/07/26 11:38:18;;;;;;;1.30;0.90;;;20.10;82.60;;;;;;5045646;28;20033;-81
2023/07/26 11:40:44;;;;;;;1.25;0.90;;;20.10;82.60;;;;;;5025747;28;20029;-83
2023/07/26 11:43:11;;;;;;;1.55;0.90;;;20.10;82.60;;;;;;5025863;28;20029;-84
2023/07/26 11:45:37;;;;;;;1.38;0.98;;;20.10;82.60;;;;;;5025757;28;20075;-83
2023/07/26 11:48:05;;;;;;;1.70;1.00;;;20.10;82.60;;;;;;5025953;28;20029;-82
2023/07/26 11:50:31;;;;;;;1.80;1.08;;;20.00;82.50;;;;;;5024453;28;20022;-82
2023/07/26 11:53:08;;;;;;;1.45;0.90;;;20.00;82.60;;;;;;5024164;28;20517;-80
2023/07/26 11:55:35;;;;;;;1.50;0.90;;;20.00;82.70;;;;;;5023477;28;20032;-81
2023/07/26 11:58:04;;;;;;;1.20;0.90;;;20.00;82.70;;;;;;5024135;28;20064;-82
2023/07/26 12:00:32;;;;;;;1.13;0.90;;;20.00;83.40;;;;;;5042806;28;20036;-81
2023/07/26 12:03:00;;;;;;;1.63;0.90;;;20.00;82.90;;;;;;5022876;28;20427;-80
2023/07/26 12:05:26;;;;;;;1.33;1.00;;;20.00;83.00;;;;;;5022115;28;20551;-81
2023/07/26 12:07:54;;;;;;;1.15;0.90;;;19.90;83.10;;;;;;5021849;28;20030;-83
2023/07/26 12:10:30;;;;;;;1.85;0.98;;;19.90;83.20;;;;;;5021224;28;20021;-83
2023/07/26 12:12:56;;;;;;;1.70;1.00;;;19.90;83.10;;;;;;5023343;28;20056;-84
2023/07/26 12:15:22;;;;;;;1.75;1.10;;;20.00;83.00;;;;;;5043689;28;20057;-81
2023/07/26 12:18:02;;;;;;;1.40;0.85;;;19.90;83.00;;;;;;5023933;28;20666;-82
2023/07/26 12:20:30;;;;;;;1.57;1.00;;;20.00;83.10;;;;;;5023228;28;20044;-81
2023/07/26 12:22:59;;;;;;;1.45;1.10;;;20.00;83.10;;;;;;5042743;28;20032;-82
2023/07/26 12:25:37;;;;;;;1.38;0.98;;;20.00;83.00;;;;;;5022962;28;20030;-81
2023/07/26 12:28:05;;;;;;;1.77;1.00;;;20.00;83.10;;;;;;5024165;28;20061;-81
2023/07/26 12:30:31;;;;;;;1.30;1.00;;;19.90;83.10;;;;;;5022754;28;20024;-82
2023/07/26 12:33:13;;;;;;;1.52;1.00;;;19.90;83.20;;;;;;5022475;28;20026;-81
2023/07/26 12:35:44;;;;;;;1.80;1.10;;;19.90;83.30;;;;;;5022274;28;20064;-82
2023/07/26 12:38:14;;;;;;;1.17;0.90;;;19.90;83.40;;;;;;5041397;28;20040;-81
2023/07/26 12:40:40;;;;;;;1.63;1.00;;;19.90;83.50;;;;;;5023311;28;20530;-81
2023/07/26 12:43:27;;;;;;;2.28;1.30;;;19.90;83.50;;;;;;5039926;28;20030;-81
2023/07/26 12:45:54;;;;;;;1.00;0.80;;;19.90;83.50;;;;;;5021075;28;20021;-81
2023/07/26 12:48:21;;;;;;;1.83;0.93;;;19.80;83.50;;;;;;5039095;28;20479;-82
2023/07/26 12:50:46;;;;;;;1.60;1.00;;;19.80;83.50;;;;;;5020558;28;20032;-81
2023/07/26 12:53:13;;;;;;;1.65;1.10;;;19.80;83.50;;;;;;5019237;28;20021;-81
2023/07/26 12:55:39;;;;;;;1.15;0.90;;;19.80;83.60;;;;;;5020024;28;20030;-81
2023/07/26 12:58:05;;;;;;;1.50;0.90;;;19.80;83.60;;;;;;5038476;28;20057;-81
2023/07/26 13:00:32;;;;;;;1.58;1.05;;;19.80;83.60;;;;;;5020498;28;20451;-81
2023/07/26 13:02:57;;;;;;;1.33;0.90;;;19.80;83.50;;;;;;5019121;28;20080;-80
2023/07/26 13:05:23;;;;;;;1.27;0.90;;;19.90;83.50;;;;;;5019450;28;20013;-81
2023/07/26 13:07:52;;;;;;;1.58;0.95;;;19.90;83.40;;;;;;5019754;28;20045;-81
2023/07/26 13:10:19;;;;;;;1.70;1.08;;;19.90;83.20;;;;;;5037114;28;20108;-81
2023/07/26 13:12:45;;;;;;;2.47;1.08;;;19.90;83.10;;;;;;5019125;28;20045;-81
2023/07/26 13:15:10;;;;;;;1.40;1.02;;;19.90;82.90;;;;;;5018329;28;20439;-80
2023/07/26 13:17:36;;;;;;;2.13;1.00;;;20.00;82.90;;;;;;5036353;28;20124;-81
2023/07/26 13:20:05;;;;;;;1.90;1.02;;;20.00;82.80;;;;;;5017577;28;20104;-81
2023/07/26 13:22:31;;;;;;;1.38;1.00;;;20.00;82.80;;;;;;5036303;28;20021;-82
2023/07/26 13:24:57;;;;;;;1.50;1.10;;;20.00;82.90;;;;;;5017896;28;20484;-81
2023/07/26 13:27:23;;;;;;;1.38;0.90;;;20.00;82.90;;;;;;5018089;28;20033;-81
2023/07/26 13:29:49;;;;;;;1.20;1.00;;;19.90;82.90;;;;;;5036192;28;20072;-81
2023/07/26 13:32:15;;;;;;;2.50;1.20;;;19.90;83.00;;;;;;5036152;28;20143;-81
2023/07/26 13:34:41;;;;;;;1.75;1.10;;;19.90;83.00;;;;;;5017568;28;20080;-80
2023/07/26 13:37:07;;;;;;;1.90;1.02;;;19.90;83.10;;;;;;5035494;28;20100;-81
2023/07/26 13:39:32;;;;;;;1.25;1.00;;;19.90;83.10;;;;;;5017247;28;20018;-82
2023/07/26 13:41:58;;;;;;;2.35;1.10;;;19.90;83.20;;;;;;5017031;28;20036;-81
2023/07/26 13:44:24;;;;;;;2.13;1.13;;;19.90;83.30;;;;;;5016935;28;20021;-81
2023/07/26 13:46:49;;;;;;;1.77;1.10;;;19.80;83.30;;;;;;5034826;28;20383;-82
2023/07/26 13:49:15;;;;;;;2.45;1.10;;;19.80;83.40;;;;;;5016748;28;20028;-82
2023/07/26 13:51:41;;;;;;;1.42;0.93;;;19.80;83.40;;;;;;5016597;28;20026;-81
2023/07/26 13:54:06;;;;;;;1.65;1.10;;;19.80;83.40;;;;;;5016517;28;20484;-81
2023/07/26 13:56:32;;;;;;;1.60;1.20;;;19.80;83.50;;;;;;5016500;28;20052;-81
2023/07/26 13:58:58;;;;;;;1.35;1.00;;;19.80;83.50;;;;;;5016224;28;20029;-81
2023/07/26 14:01:25;;;;;;;1.52;1.08;;;19.80;83.60;;;;;;5034213;28;20075;-82
2023/07/26 14:03:51;;;;;;;1.60;0.90;;;19.80;83.60;;;;;;5016103;28;20029;-81
2023/07/26 14:06:22;;;;;;;1.60;1.10;;;19.80;83.60;;;;;;5029443;28;20044;-86
2023/07/26 14:08:48;;;;;;;1.25;0.98;;;19.80;83.60;;;;;;5037398;28;20013;-83